createdAt,value
2022-08-17T00:01:22.567Z,21.16
2022-08-17T00:03:54.942Z,21.14
2022-08-17T00:06:27.899Z,21.14
2022-08-17T00:09:01.546Z,21.11
2022-08-17T00:11:43.909Z,21.11
2022-08-17T00:14:37.112Z,21.07
2022-08-17T00:17:07.747Z,21.06
2022-08-17T00:19:39.140Z,21.04
2022-08-17T00:22:33.172Z,21.03
2022-08-17T00:24:58.213Z,21.01
2022-08-17T00:27:28.254Z,21.00
2022-08-17T00:29:58.547Z,20.98
2022-08-17T00:33:12.354Z,20.96
2022-08-17T00:35:25.078Z,20.93
2022-08-17T00:37:52.959Z,20.90
2022-08-17T00:40:21.528Z,20.87
2022-08-17T00:42:56.515Z,20.83
2022-08-17T00:45:26.439Z,20.81
2022-08-17T00:47:59.775Z,20.78
2022-08-17T00:50:29.826Z,20.76
2022-08-17T00:53:00.384Z,20.75
2022-08-17T00:55:36.808Z,20.72
2022-08-17T00:58:07.748Z,20.70
2022-08-17T01:00:45.863Z,20.67
2022-08-17T01:03:21.957Z,20.66
2022-08-17T01:06:09.700Z,20.64
2022-08-17T01:08:43.127Z,20.58
2022-08-17T01:11:24.736Z,20.59
2022-08-17T01:14:01.487Z,20.58
2022-08-17T01:16:32.500Z,20.60
2022-08-17T01:19:17.721Z,20.59
2022-08-17T01:22:10.739Z,20.57
2022-08-17T01:24:49.974Z,20.55
2022-08-17T01:27:20.601Z,20.52
2022-08-17T01:30:01.930Z,20.52
2022-08-17T01:32:31.386Z,20.48
2022-08-17T01:35:04.680Z,20.46
2022-08-17T01:37:44.219Z,20.44
2022-08-17T01:40:44.405Z,20.41
2022-08-17T01:43:27.781Z,20.37
2022-08-17T01:46:03.539Z,20.33
2022-08-17T01:48:38.554Z,20.30
2022-08-17T01:51:07.950Z,20.25
2022-08-17T01:53:44.712Z,20.20
2022-08-17T01:56:25.019Z,20.14
2022-08-17T01:59:02.124Z,20.08
2022-08-17T02:01:34.972Z,20.05
2022-08-17T02:04:18.248Z,20.05
2022-08-17T02:07:01.194Z,20.03
2022-08-17T02:09:30.207Z,20.03
2022-08-17T02:12:37.900Z,20.03
2022-08-17T02:14:51.878Z,20.01
2022-08-17T02:17:19.323Z,20.04
2022-08-17T02:19:46.800Z,20.04
2022-08-17T02:22:15.615Z,20.05
2022-08-17T02:24:58.627Z,20.04
2022-08-17T02:27:30.060Z,20.01
2022-08-17T02:29:57.752Z,19.97
2022-08-17T02:32:27.945Z,19.95
2022-08-17T02:35:00.285Z,19.93
2022-08-17T02:37:29.858Z,19.90
2022-08-17T02:39:59.631Z,19.87
2022-08-17T02:42:38.871Z,19.85
2022-08-17T02:45:15.822Z,19.82
2022-08-17T02:47:44.899Z,19.81
2022-08-17T02:50:18.596Z,19.79
2022-08-17T02:52:48.887Z,19.77
2022-08-17T02:55:37.156Z,19.75
2022-08-17T02:58:05.239Z,19.72
2022-08-17T03:00:40.958Z,19.72
2022-08-17T03:03:13.441Z,19.68
2022-08-17T03:05:41.023Z,19.67
2022-08-17T03:08:10.450Z,19.66
2022-08-17T03:10:42.313Z,19.65
2022-08-17T03:13:11.115Z,19.65
2022-08-17T03:15:40.653Z,19.63
2022-08-17T03:18:24.243Z,19.62
2022-08-17T03:21:00.268Z,19.62
2022-08-17T03:23:29.638Z,19.62
2022-08-17T03:25:58.509Z,19.63
2022-08-17T03:28:28.207Z,19.63
2022-08-17T03:30:55.701Z,19.65
2022-08-17T03:33:23.280Z,19.67
2022-08-17T03:35:51.895Z,19.69
2022-08-17T03:38:19.867Z,19.70
2022-08-17T03:40:57.381Z,19.72
2022-08-17T03:43:31.305Z,19.73
2022-08-17T03:46:28.386Z,19.76
2022-08-17T03:49:26.917Z,19.78
2022-08-17T03:52:15.873Z,19.80
2022-08-17T03:55:03.453Z,19.81
2022-08-17T03:57:32.414Z,19.82
2022-08-17T03:59:59.946Z,19.83
2022-08-17T04:02:32.905Z,19.84
2022-08-17T04:05:00.700Z,19.83
2022-08-17T04:07:31.177Z,19.83
2022-08-17T04:09:59.627Z,19.81
2022-08-17T04:12:31.565Z,19.82
2022-08-17T04:14:59.454Z,19.82
2022-08-17T04:17:29.172Z,19.82
2022-08-17T04:19:56.930Z,19.82
2022-08-17T04:22:32.737Z,19.80
2022-08-17T04:25:08.218Z,19.80
2022-08-17T04:27:36.565Z,19.76
2022-08-17T04:30:07.449Z,19.75
2022-08-17T04:33:11.012Z,19.72
2022-08-17T04:35:43.877Z,19.72
2022-08-17T04:38:21.577Z,19.74
2022-08-17T04:41:07.562Z,19.74
2022-08-17T04:43:37.744Z,19.74
2022-08-17T04:46:11.307Z,19.75
2022-08-17T04:48:43.820Z,19.76
2022-08-17T04:51:18.740Z,19.79
2022-08-17T04:53:54.285Z,19.80
2022-08-17T04:56:25.965Z,19.83
2022-08-17T04:58:59.550Z,19.86
2022-08-17T05:01:32.721Z,19.89
2022-08-17T05:04:33.092Z,19.93
2022-08-17T05:06:55.675Z,19.94
2022-08-17T05:09:23.206Z,19.96
2022-08-17T05:11:51.991Z,19.97
2022-08-17T05:14:19.582Z,19.99
2022-08-17T05:16:49.277Z,20.01
2022-08-17T05:19:16.763Z,20.04
2022-08-17T05:21:44.368Z,20.05
2022-08-17T05:24:38.201Z,20.08
2022-08-17T05:27:06.030Z,20.08
2022-08-17T05:29:35.633Z,20.13
2022-08-17T05:32:39.570Z,20.15
2022-08-17T05:35:00.449Z,20.16
2022-08-17T05:37:28.581Z,20.16
2022-08-17T05:39:56.182Z,20.16
2022-08-17T05:42:24.121Z,20.19
2022-08-17T05:44:52.622Z,20.20
2022-08-17T05:47:23.330Z,20.23
2022-08-17T05:49:50.966Z,20.23
2022-08-17T05:52:50.187Z,20.24
2022-08-17T05:55:45.233Z,20.23
2022-08-17T05:58:35.741Z,20.26
2022-08-17T06:01:12.690Z,20.26
2022-08-17T06:04:16.531Z,20.26
2022-08-17T06:07:06.650Z,20.25
2022-08-17T06:09:50.555Z,20.25
2022-08-17T06:13:01.456Z,20.24
2022-08-17T06:15:50.022Z,20.23
2022-08-17T06:18:21.988Z,20.25
2022-08-17T06:20:56.287Z,20.30
2022-08-17T06:23:48.106Z,20.35
2022-08-17T06:26:30.508Z,20.34
2022-08-17T06:29:31.517Z,20.41
2022-08-17T06:31:59.160Z,20.46
2022-08-17T06:34:26.754Z,20.55
2022-08-17T06:37:07.846Z,20.66
2022-08-17T06:40:07.172Z,20.75
2022-08-17T06:43:08.855Z,20.86
2022-08-17T06:46:24.028Z,21.00
2022-08-17T06:49:34.276Z,21.09
2022-08-17T06:52:46.716Z,21.19
2022-08-17T06:55:26.277Z,21.28
2022-08-17T06:58:09.389Z,21.37
2022-08-17T07:00:47.974Z,21.43
2022-08-17T07:03:40.966Z,21.52
2022-08-17T07:06:16.952Z,21.53
2022-08-17T07:08:58.970Z,21.58
2022-08-17T07:11:38.305Z,21.62
2022-08-17T07:14:37.946Z,21.69
2022-08-17T07:17:14.377Z,21.73
2022-08-17T07:19:45.951Z,21.77
2022-08-17T07:22:53.634Z,21.77
2022-08-17T07:25:22.342Z,21.80
2022-08-17T07:27:54.510Z,21.87
2022-08-17T07:30:28.036Z,21.90
2022-08-17T07:33:08.721Z,21.93
2022-08-17T07:35:44.520Z,21.95
2022-08-17T07:38:24.800Z,21.98
2022-08-17T07:41:03.807Z,21.98
2022-08-17T07:43:38.046Z,21.99
2022-08-17T07:46:30.578Z,22.02
2022-08-17T07:49:20.534Z,22.05
2022-08-17T07:51:47.983Z,22.07
2022-08-17T07:54:15.506Z,22.10
2022-08-17T07:56:59.898Z,22.15
2022-08-17T07:59:36.409Z,22.21
2022-08-17T08:02:33.871Z,22.27
2022-08-17T08:05:30.732Z,22.32
2022-08-17T08:08:28.140Z,22.32
2022-08-17T08:11:07.267Z,22.32
2022-08-17T08:13:42.747Z,22.29
2022-08-17T08:16:29.677Z,22.29
2022-08-17T08:19:02.044Z,22.23
2022-08-17T08:21:55.085Z,22.18
2022-08-17T08:25:01.245Z,22.06
2022-08-17T08:28:21.374Z,21.83
2022-08-17T08:31:12.726Z,21.53
2022-08-17T08:34:58.678Z,21.33
2022-08-17T08:37:20.832Z,21.17
2022-08-17T08:40:11.423Z,21.11
2022-08-17T08:43:19.596Z,21.16
2022-08-17T08:46:06.298Z,21.14
2022-08-17T08:49:12.114Z,21.17
2022-08-17T08:51:58.918Z,21.32
2022-08-17T08:54:42.693Z,21.52
2022-08-17T08:57:36.407Z,21.70
2022-08-17T09:00:22.943Z,21.96
2022-08-17T09:03:51.917Z,22.22
2022-08-17T09:07:18.888Z,22.44
2022-08-17T09:10:17.090Z,22.71
2022-08-17T09:13:27.011Z,22.91
2022-08-17T09:16:15.220Z,23.11
2022-08-17T09:19:02.609Z,23.21
2022-08-17T09:21:52.602Z,23.24
2022-08-17T09:24:34.674Z,23.19
2022-08-17T09:27:30.524Z,23.18
2022-08-17T09:30:10.301Z,23.19
2022-08-17T09:32:46.124Z,23.17
2022-08-17T09:35:44.488Z,23.20
2022-08-17T09:38:40.501Z,23.27
2022-08-17T09:41:24.933Z,23.33
2022-08-17T09:44:14.057Z,23.34
2022-08-17T09:47:03.524Z,23.37
2022-08-17T09:49:52.511Z,23.43
2022-08-17T09:52:30.473Z,23.50
2022-08-17T09:55:01.744Z,23.55
2022-08-17T09:58:05.066Z,23.58
2022-08-17T10:00:41.927Z,23.59
2022-08-17T10:03:30.677Z,23.58
2022-08-17T10:06:22.493Z,23.56
2022-08-17T10:09:14.489Z,23.56
2022-08-17T10:12:20.120Z,23.58
2022-08-17T10:15:08.145Z,23.57
2022-08-17T10:17:57.689Z,23.54
2022-08-17T10:20:33.985Z,23.47
2022-08-17T10:23:32.635Z,23.41
2022-08-17T10:26:24.954Z,23.38
2022-08-17T10:29:16.839Z,23.34
2022-08-17T10:31:54.909Z,23.30
2022-08-17T10:34:50.875Z,23.28
2022-08-17T10:37:59.187Z,23.28
2022-08-17T10:40:48.074Z,23.24
2022-08-17T10:43:55.843Z,23.21
2022-08-17T10:47:08.327Z,23.14
2022-08-17T10:49:47.814Z,23.15
2022-08-17T10:52:27.813Z,23.17
2022-08-17T10:54:58.279Z,23.14
2022-08-17T10:57:29.231Z,23.11
2022-08-17T11:00:42.429Z,23.09
2022-08-17T11:03:25.235Z,23.03
2022-08-17T11:06:14.211Z,22.97
2022-08-17T11:09:19.916Z,22.96
2022-08-17T11:11:47.528Z,22.94
2022-08-17T11:14:41.267Z,22.92
2022-08-17T11:17:53.150Z,22.84
2022-08-17T11:21:11.188Z,22.74
2022-08-17T11:24:15.406Z,22.72
2022-08-17T11:27:00.875Z,22.71
2022-08-17T11:30:02.302Z,22.69
2022-08-17T11:32:52.958Z,22.65
2022-08-17T11:35:22.255Z,22.66
2022-08-17T11:38:16.032Z,22.67
2022-08-17T11:41:13.233Z,22.64
2022-08-17T11:44:16.574Z,22.67
2022-08-17T11:47:49.520Z,22.70
2022-08-17T11:51:29.640Z,22.76
2022-08-17T11:54:34.393Z,22.82
2022-08-17T11:57:26.886Z,22.82
2022-08-17T12:00:26.806Z,22.77
2022-08-17T12:03:32.228Z,22.71
2022-08-17T12:06:30.472Z,22.67
2022-08-17T12:09:27.336Z,22.66
2022-08-17T12:12:14.605Z,22.67
2022-08-17T12:15:15.662Z,22.67
2022-08-17T12:17:56.523Z,22.69
2022-08-17T12:20:29.860Z,22.69
2022-08-17T12:23:23.507Z,22.69
2022-08-17T12:26:05.085Z,22.70
2022-08-17T12:28:38.699Z,22.73
2022-08-17T12:31:15.121Z,22.76
2022-08-17T12:33:46.080Z,22.76
2022-08-17T12:36:21.301Z,22.76
2022-08-17T12:39:14.599Z,22.77
2022-08-17T12:41:46.986Z,22.77
2022-08-17T12:44:28.028Z,22.75
2022-08-17T12:47:21.961Z,22.70
2022-08-17T12:50:03.799Z,22.64
2022-08-17T12:52:33.052Z,22.56
2022-08-17T12:55:23.097Z,22.53
2022-08-17T12:57:59.461Z,22.43
2022-08-17T13:00:33.977Z,22.36
2022-08-17T13:03:20.178Z,22.29
2022-08-17T13:06:01.373Z,22.24
2022-08-17T13:08:45.380Z,22.18
2022-08-17T13:11:18.614Z,22.13
2022-08-17T13:13:51.240Z,22.09
2022-08-17T13:16:25.715Z,22.06
2022-08-17T13:19:05.457Z,22.05
2022-08-17T13:21:35.415Z,22.00
2022-08-17T13:24:12.099Z,21.95
2022-08-17T13:26:48.286Z,21.89
2022-08-17T13:29:29.073Z,21.86
2022-08-17T13:32:16.477Z,21.82
2022-08-17T13:35:16.269Z,21.77
2022-08-17T13:38:04.409Z,21.76
2022-08-17T13:40:45.348Z,21.75
2022-08-17T13:43:48.448Z,21.74
2022-08-17T13:46:24.930Z,21.75
2022-08-17T13:49:09.743Z,21.77
2022-08-17T13:51:46.680Z,21.81
2022-08-17T13:54:36.209Z,21.83
2022-08-17T13:57:21.449Z,21.89
2022-08-17T13:59:58.157Z,21.97
2022-08-17T14:02:27.938Z,22.04
2022-08-17T14:04:58.550Z,22.13
2022-08-17T14:07:33.553Z,22.18
2022-08-17T14:10:15.227Z,22.20
2022-08-17T14:12:45.264Z,22.16
2022-08-17T14:15:17.117Z,22.10
2022-08-17T14:17:44.781Z,22.04
2022-08-17T14:20:14.025Z,22.02
2022-08-17T14:22:49.460Z,22.04
2022-08-17T14:25:26.912Z,22.02
2022-08-17T14:27:55.648Z,22.00
2022-08-17T14:30:29.700Z,21.98
2022-08-17T14:32:59.193Z,21.98
2022-08-17T14:35:28.826Z,21.97
2022-08-17T14:37:56.564Z,21.96
2022-08-17T14:40:25.358Z,21.96
2022-08-17T14:42:56.311Z,21.99
2022-08-17T14:45:31.773Z,21.99
2022-08-17T14:48:07.666Z,22.00
2022-08-17T14:50:41.741Z,22.02
2022-08-17T14:53:13.639Z,22.02
2022-08-17T14:55:42.269Z,22.01
2022-08-17T14:58:09.921Z,22.03
2022-08-17T15:00:38.881Z,22.05
2022-08-17T15:03:06.704Z,22.07
2022-08-17T15:05:38.130Z,22.10
2022-08-17T15:08:06.580Z,22.05
2022-08-17T15:10:35.218Z,22.04
2022-08-17T15:13:03.698Z,22.03
2022-08-17T15:15:31.280Z,22.00
2022-08-17T15:17:59.929Z,21.99
2022-08-17T15:20:30.188Z,21.97
2022-08-17T15:22:59.028Z,21.94
2022-08-17T15:25:31.900Z,21.92
2022-08-17T15:28:00.499Z,21.90
2022-08-17T15:30:29.407Z,21.92
2022-08-17T15:33:00.634Z,21.93
2022-08-17T15:35:32.936Z,21.96
2022-08-17T15:38:11.149Z,22.00
2022-08-17T15:40:48.325Z,22.05
2022-08-17T15:43:32.436Z,22.07
2022-08-17T15:46:17.444Z,22.09
2022-08-17T15:48:52.133Z,22.10
2022-08-17T15:51:30.725Z,22.13
2022-08-17T15:54:18.723Z,22.15
2022-08-17T15:56:49.911Z,22.22
2022-08-17T15:59:17.802Z,22.37
2022-08-17T16:03:09.849Z,22.57
2022-08-17T16:04:33.246Z,22.82
2022-08-17T16:07:01.148Z,23.00
2022-08-17T16:09:28.756Z,23.17
2022-08-17T16:11:56.749Z,23.37
2022-08-17T16:14:30.217Z,23.52
2022-08-17T16:17:05.038Z,23.53
2022-08-17T16:19:52.905Z,23.52
2022-08-17T16:22:44.978Z,23.53
2022-08-17T16:25:49.024Z,23.56
2022-08-17T16:28:17.645Z,23.53
2022-08-17T16:30:45.457Z,23.49
2022-08-17T16:33:16.670Z,23.47
2022-08-17T16:35:44.288Z,23.44
2022-08-17T16:38:12.481Z,23.41
2022-08-17T16:40:44.085Z,23.40
2022-08-17T16:43:11.985Z,23.37
2022-08-17T16:45:40.539Z,23.29
2022-08-17T16:48:09.433Z,23.17
2022-08-17T16:50:37.810Z,23.01
2022-08-17T16:53:18.275Z,22.86
2022-08-17T16:55:48.875Z,22.75
2022-08-17T16:58:16.375Z,22.67
2022-08-17T17:00:45.659Z,22.62
2022-08-17T17:03:19.881Z,22.54
2022-08-17T17:05:55.282Z,22.47
2022-08-17T17:08:31.294Z,22.43
2022-08-17T17:11:23.117Z,22.39
2022-08-17T17:14:02.479Z,22.30
2022-08-17T17:16:49.642Z,22.24
2022-08-17T17:19:38.398Z,22.21
2022-08-17T17:22:26.849Z,22.18
2022-08-17T17:25:16.642Z,22.15
2022-08-17T17:28:01.417Z,22.12
2022-08-17T17:30:56.776Z,22.09
2022-08-17T17:33:40.467Z,22.06
2022-08-17T17:36:32.885Z,22.05
2022-08-17T17:39:26.048Z,22.04
2022-08-17T17:42:07.682Z,22.05
2022-08-17T17:44:40.951Z,21.99
2022-08-17T17:47:09.873Z,22.02
2022-08-17T17:49:45.926Z,22.04
2022-08-17T17:52:57.927Z,22.03
2022-08-17T17:55:39.982Z,21.97
2022-08-17T17:58:07.403Z,21.92
2022-08-17T18:00:43.825Z,21.90
2022-08-17T18:03:41.768Z,21.85
2022-08-17T18:06:30.511Z,21.79
2022-08-17T18:09:25.307Z,21.73
2022-08-17T18:12:22.430Z,21.66
2022-08-17T18:15:33.904Z,21.59
2022-08-17T18:18:14.616Z,21.49
2022-08-17T18:20:55.835Z,21.40
2022-08-17T18:23:28.123Z,21.34
2022-08-17T18:25:58.537Z,21.26
2022-08-17T18:28:39.833Z,21.20
2022-08-17T18:31:21.425Z,21.15
2022-08-17T18:33:53.301Z,21.04
2022-08-17T18:36:39.831Z,21.00
2022-08-17T18:39:28.553Z,20.95
2022-08-17T18:41:59.456Z,20.89
2022-08-17T18:44:49.605Z,20.86
2022-08-17T18:47:29.376Z,20.80
2022-08-17T18:50:27.162Z,20.76
2022-08-17T18:53:26.604Z,20.70
2022-08-17T18:56:42.061Z,20.68
2022-08-17T18:59:28.345Z,20.61
2022-08-17T19:02:38.788Z,20.58
2022-08-17T19:05:39.045Z,20.54
2022-08-17T19:08:30.767Z,20.47
2022-08-17T19:11:09.764Z,20.39
2022-08-17T19:13:45.232Z,20.39
2022-08-17T19:17:09.768Z,20.36
2022-08-17T19:20:02.900Z,20.31
2022-08-17T19:23:02.246Z,20.27
2022-08-17T19:25:38.317Z,20.23
2022-08-17T19:28:22.218Z,20.21
2022-08-17T19:30:57.763Z,20.19
2022-08-17T19:33:26.789Z,20.14
2022-08-17T19:36:12.763Z,20.10
2022-08-17T19:38:56.862Z,20.07
2022-08-17T19:41:47.316Z,20.02
2022-08-17T19:44:52.686Z,20.00
2022-08-17T19:48:12.419Z,19.95
2022-08-17T19:50:58.926Z,19.87
2022-08-17T19:54:06.581Z,19.83
2022-08-17T19:56:43.584Z,19.79
2022-08-17T19:59:46.191Z,19.76
2022-08-17T20:02:30.807Z,19.71
2022-08-17T20:05:11.263Z,19.67
2022-08-17T20:07:45.978Z,19.61
2022-08-17T20:10:28.602Z,19.59
2022-08-17T20:13:09.751Z,19.55
2022-08-17T20:15:42.927Z,19.52
2022-08-17T20:18:29.814Z,19.51
2022-08-17T20:21:06.259Z,19.49
2022-08-17T20:23:59.925Z,19.48
2022-08-17T20:26:43.884Z,19.44
2022-08-17T20:29:36.918Z,19.40
2022-08-17T20:32:20.871Z,19.39
2022-08-17T20:34:48.698Z,19.34
2022-08-17T20:37:16.023Z,19.30
2022-08-17T20:39:49.695Z,19.31
2022-08-17T20:42:19.900Z,19.27
2022-08-17T20:44:52.885Z,19.25
2022-08-17T20:47:55.381Z,19.24
2022-08-17T20:50:38.702Z,19.20
2022-08-17T20:53:13.510Z,19.18
2022-08-17T20:55:51.862Z,19.15
2022-08-17T20:58:30.899Z,19.13
2022-08-17T21:00:58.922Z,19.10
2022-08-17T21:03:50.567Z,19.08
2022-08-17T21:06:22.140Z,19.06
2022-08-17T21:09:12.583Z,19.05
2022-08-17T21:11:58.236Z,19.01
2022-08-17T21:15:07.839Z,19.00
2022-08-17T21:17:50.187Z,18.96
2022-08-17T21:20:48.808Z,18.96
2022-08-17T21:23:43.889Z,18.93
2022-08-17T21:26:32.754Z,18.90
2022-08-17T21:29:32.504Z,18.88
2022-08-17T21:32:05.306Z,18.84
2022-08-17T21:34:43.482Z,18.84
2022-08-17T21:37:19.871Z,18.82
2022-08-17T21:40:18.877Z,18.80
2022-08-17T21:42:55.501Z,18.77
2022-08-17T21:45:35.469Z,18.75
2022-08-17T21:48:16.673Z,18.72
2022-08-17T21:50:59.280Z,18.69
2022-08-17T21:53:57.922Z,18.68
2022-08-17T21:56:40.714Z,18.65
2022-08-17T21:59:27.305Z,18.65
2022-08-17T22:02:00.641Z,18.63
2022-08-17T22:04:33.439Z,18.62
2022-08-17T22:07:06.921Z,18.61
2022-08-17T22:09:44.436Z,18.63
2022-08-17T22:12:18.532Z,18.64
2022-08-17T22:15:01.836Z,18.65
2022-08-17T22:17:36.780Z,18.66
2022-08-17T22:20:18.869Z,18.68
2022-08-17T22:23:05.039Z,18.68
2022-08-17T22:25:39.426Z,18.69
2022-08-17T22:28:10.984Z,18.72
2022-08-17T22:30:43.893Z,18.68
2022-08-17T22:33:33.288Z,18.70
2022-08-17T22:36:21.992Z,18.74
2022-08-17T22:38:59.171Z,18.74
2022-08-17T22:41:48.357Z,18.78
2022-08-17T22:44:24.052Z,18.78
2022-08-17T22:47:11.093Z,18.81
2022-08-17T22:50:00.011Z,18.84
2022-08-17T22:52:58.713Z,18.85
2022-08-17T22:55:48.487Z,18.84
2022-08-17T22:58:40.868Z,18.86
2022-08-17T23:01:32.621Z,18.89
2022-08-17T23:04:03.399Z,18.86
2022-08-17T23:06:36.124Z,18.87
2022-08-17T23:09:07.380Z,18.90
2022-08-17T23:11:49.109Z,18.92
2022-08-17T23:14:20.649Z,18.92
2022-08-17T23:16:50.994Z,18.90
2022-08-17T23:19:21.512Z,18.91
2022-08-17T23:21:52.406Z,18.92
2022-08-17T23:24:25.824Z,18.90
2022-08-17T23:26:57.232Z,18.92
2022-08-17T23:29:29.238Z,18.88
2022-08-17T23:31:59.712Z,18.86
2022-08-17T23:34:28.465Z,18.89
2022-08-17T23:36:55.975Z,18.95
2022-08-17T23:39:27.583Z,18.97
2022-08-17T23:41:59.152Z,19.00
2022-08-17T23:44:28.909Z,19.02
2022-08-17T23:46:56.907Z,19.02
2022-08-17T23:49:25.201Z,19.04
2022-08-17T23:51:56.566Z,19.07
2022-08-17T23:54:37.431Z,19.07
2022-08-17T23:57:04.993Z,19.05
2022-08-17T23:59:33.772Z,19.06
